Time;durP1;ratioP1;P1;durP2;ratioP2;P2;SDS_P1;SDS_P2;PMS_P1;PMS_P2;Temp;Humidity;BMP_temperature;BMP_pressure;BME280_temperature;BME280_humidity;BME280_pressure;Samples;Min_cycle;Max_cycle;Signal;HPM_P1;HPM_P2
2021/09/06 00:02:18;;;;;;;;;15.25;15.25;;;;;23.85;55.63;101609.28;4932616;28;45511;-71
2021/09/06 00:04:43;;;;;;;;;16.75;16.75;;;;;23.90;55.84;101615.25;4924447;28;45387;-71
2021/09/06 00:07:11;;;;;;;;;17.50;15.75;;;;;23.89;55.69;101616.25;4935565;28;47303;-71
2021/09/06 00:09:39;;;;;;;;;16.75;15.00;;;;;23.70;55.44;101600.34;4907482;28;46295;-71
2021/09/06 00:12:12;;;;;;;;;18.50;17.00;;;;;23.89;55.35;101631.72;4915940;28;45212;-71
2021/09/06 00:14:40;;;;;;;;;15.25;15.25;;;;;24.03;56.13;101647.94;4925667;28;45597;-71
2021/09/06 00:17:08;;;;;;;;;18.25;15.25;;;;;24.01;56.20;101647.19;4906681;28;47178;-71
2021/09/06 00:19:33;;;;;;;;;14.75;14.75;;;;;23.86;55.55;101628.25;4936783;28;45565;-71
2021/09/06 00:22:01;;;;;;;;;15.25;15.25;;;;;23.94;56.31;101633.13;4923774;28;45526;-71
2021/09/06 00:24:31;;;;;;;;;15.75;15.75;;;;;23.75;55.26;101610.91;4923787;28;45403;-71
2021/09/06 00:26:57;;;;;;;;;15.00;15.00;;;;;23.83;54.47;101628.47;4924070;28;45320;-71
2021/09/06 00:29:23;;;;;;;;;17.50;17.50;;;;;23.86;54.13;101630.09;4919146;28;45385;-71
2021/09/06 00:31:49;;;;;;;;;16.75;16.00;;;;;23.69;55.37;101609.53;4907033;28;46008;-71
2021/09/06 00:34:21;;;;;;;;;17.00;16.00;;;;;23.58;55.45;101585.78;4906494;28;45444;-71
2021/09/06 00:36:47;;;;;;;;;17.00;17.00;;;;;23.68;55.66;101614.09;4931181;28;46394;-71
2021/09/06 00:39:14;;;;;;;;;13.75;13.75;;;;;23.53;53.97;101592.56;4936883;28;45245;-71
2021/09/06 00:41:42;;;;;;;;;13.00;13.00;;;;;23.54;55.41;101587.00;4937782;28;45577;-71
2021/09/06 00:44:08;;;;;;;;;15.25;14.25;;;;;23.71;55.65;101623.03;4929111;28;45465;-71
2021/09/06 00:46:36;;;;;;;;;14.25;13.25;;;;;23.85;55.56;101648.28;4923206;28;46317;-71
2021/09/06 00:49:01;;;;;;;;;14.75;14.75;;;;;23.55;55.50;101605.06;4924358;28;45475;-71
2021/09/06 00:51:27;;;;;;;;;15.25;14.25;;;;;23.68;55.34;101632.31;4915586;28;45478;-71
2021/09/06 00:53:55;;;;;;;;;15.50;14.50;;;;;23.61;55.64;101614.69;4923485;28;45242;-71
2021/09/06 00:56:21;;;;;;;;;14.75;14.75;;;;;23.85;56.04;101666.53;4923752;28;45497;-71
2021/09/06 00:58:50;;;;;;;;;20.25;19.25;;;;;23.75;56.25;101655.38;4923206;28;45290;-71
2021/09/06 01:01:16;;;;;;;;;16.50;12.25;;;;;23.49;55.94;101611.84;4909318;28;45353;-71
2021/09/06 01:03:41;;;;;;;;;20.00;16.00;;;;;23.70;56.67;101645.81;4910051;28;45606;-71
2021/09/06 01:06:09;;;;;;;;;17.50;17.25;;;;;23.59;56.35;101624.78;4923357;28;46400;-71
2021/09/06 01:08:35;;;;;;;;;16.75;16.50;;;;;23.63;56.46;101642.69;4923119;28;45327;-71
2021/09/06 01:11:02;;;;;;;;;18.75;18.50;;;;;23.58;56.60;101634.84;4929956;28;45469;-71
2021/09/06 01:13:28;;;;;;;;;22.00;21.75;;;;;23.64;56.56;101636.25;4946472;28;45485;-71
2021/09/06 01:15:54;;;;;;;;;18.25;18.25;;;;;23.57;57.21;101633.09;4920256;28;47332;-71
2021/09/06 01:18:24;;;;;;;;;19.25;18.25;;;;;23.75;56.95;101665.44;4925065;28;45347;-71
2021/09/06 01:20:52;;;;;;;;;20.00;18.50;;;;;23.55;56.85;101621.44;4938564;28;45637;-71
2021/09/06 01:23:22;;;;;;;;;19.00;16.50;;;;;23.36;57.23;101588.34;4922755;28;45580;-71
2021/09/06 01:25:50;;;;;;;;;19.25;18.50;;;;;23.53;57.02;101623.41;4921488;28;46614;-71
2021/09/06 01:28:17;;;;;;;;;19.75;18.25;;;;;23.28;57.28;101587.03;4920135;28;45628;-71
2021/09/06 01:30:45;;;;;;;;;19.75;18.25;;;;;23.41;57.41;101613.41;4928079;28;45590;-71
2021/09/06 01:33:10;;;;;;;;;22.00;21.00;;;;;23.67;57.54;101663.25;4922282;28;45307;-71
2021/09/06 01:35:36;;;;;;;;;16.25;16.25;;;;;23.47;57.72;101627.47;4923955;28;46255;-71
2021/09/06 01:38:11;;;;;;;;;23.75;22.00;;;;;23.60;57.81;101648.34;4936028;28;45734;-71
2021/09/06 01:40:37;;;;;;;;;21.25;19.25;;;;;23.43;57.42;101628.66;4938467;28;45256;-71
2021/09/06 01:43:05;;;;;;;;;21.25;19.50;;;;;23.47;58.03;101632.00;4955259;28;45648;-71
2021/09/06 01:45:30;;;;;;;;;22.50;20.75;;;;;23.44;57.81;101633.13;4940451;28;45942;-71
2021/09/06 01:48:01;;;;;;;;;23.25;22.25;;;;;23.49;57.95;101646.41;4921907;28;45438;-71
2021/09/06 01:50:27;;;;;;;;;20.75;20.25;;;;;23.41;58.45;101643.38;4928142;28;45463;-71
2021/09/06 01:52:52;;;;;;;;;18.75;18.00;;;;;23.60;58.27;101671.00;4921124;28;45330;-71
2021/09/06 01:55:17;;;;;;;;;20.25;20.00;;;;;23.40;58.25;101633.44;4921157;28;46354;-71
2021/09/06 01:57:45;;;;;;;;;23.25;22.75;;;;;23.52;58.57;101662.53;4921329;28;45295;-71
2021/09/06 02:00:14;;;;;;;;;21.25;20.25;;;;;23.35;58.26;101633.78;4921180;28;45395;-71
2021/09/06 02:02:43;;;;;;;;;20.00;20.00;;;;;23.46;58.29;101658.41;4932114;28;45814;-71
2021/09/06 02:05:11;;;;;;;;;23.75;20.75;;;;;23.52;58.51;101675.28;4936736;28;46367;-71
2021/09/06 02:07:36;;;;;;;;;19.50;19.25;;;;;23.34;58.61;101645.69;4939360;28;45341;-71
2021/09/06 02:10:06;;;;;;;;;20.50;20.50;;;;;23.25;58.32;101639.00;4925200;28;45579;-71
2021/09/06 02:12:34;;;;;;;;;22.25;19.00;;;;;23.41;58.79;101655.13;4893258;28;1347670;-71
2021/09/06 02:14:59;;;;;;;;;22.25;20.75;;;;;23.26;59.19;101637.19;4928436;28;46358;-71
2021/09/06 02:17:25;;;;;;;;;19.50;18.50;;;;;23.43;58.84;101657.75;4932659;28;45293;-71
2021/09/06 02:19:56;;;;;;;;;21.75;20.00;;;;;23.26;59.09;101640.78;4905191;28;45494;-71
2021/09/06 02:22:22;;;;;;;;;20.50;19.50;;;;;23.24;58.67;101644.59;4939783;28;45371;-71
2021/09/06 02:24:50;;;;;;;;;19.50;17.75;;;;;23.31;58.75;101656.78;4911278;28;47469;-71
2021/09/06 02:27:25;;;;;;;;;20.50;19.50;;;;;23.24;59.39;101648.19;4940195;28;45427;-71
2021/09/06 02:29:58;;;;;;;;;20.25;20.25;;;;;23.24;58.99;101652.78;4935911;28;45519;-71
2021/09/06 02:32:25;;;;;;;;;20.75;20.75;;;;;23.38;59.33;101679.00;4926875;28;45575;-71
2021/09/06 02:34:51;;;;;;;;;21.50;20.50;;;;;23.34;59.29;101672.03;4917341;28;46578;-71
2021/09/06 02:37:17;;;;;;;;;22.00;20.50;;;;;23.18;59.32;101640.44;4930005;28;45472;-71
2021/09/06 02:39:42;;;;;;;;;21.75;21.00;;;;;22.99;59.51;101619.09;4930439;28;45463;-71
2021/09/06 02:42:08;;;;;;;;;20.75;20.75;;;;;23.00;59.55;101625.38;4924818;28;45553;-71
2021/09/06 02:44:36;;;;;;;;;23.50;22.25;;;;;23.22;59.39;101660.16;4920454;28;46868;-71
2021/09/06 02:47:01;;;;;;;;;22.50;22.25;;;;;23.27;59.53;101674.31;4904696;28;45233;-71
2021/09/06 02:49:29;;;;;;;;;21.00;19.50;;;;;23.18;59.46;101659.50;4909421;28;45271;-71
2021/09/06 02:51:56;;;;;;;;;21.00;21.00;;;;;23.33;59.08;101694.81;4935766;28;45577;-71
2021/09/06 02:54:25;;;;;;;;;23.00;23.00;;;;;23.15;59.10;101665.16;4927718;28;46384;-71
2021/09/06 02:56:52;;;;;;;;;21.75;21.75;;;;;23.11;59.61;101658.22;4911458;28;45449;-71
2021/09/06 02:59:20;;;;;;;;;21.00;21.00;;;;;23.13;58.87;101672.59;4920606;28;45252;-71
2021/09/06 03:01:46;;;;;;;;;20.00;19.25;;;;;23.08;59.21;101664.72;4921593;28;45527;-71
2021/09/06 03:04:11;;;;;;;;;16.25;15.50;;;;;23.16;58.69;101682.41;4914844;28;47667;-71
2021/09/06 03:06:41;;;;;;;;;17.75;17.00;;;;;23.06;58.74;101663.97;4908517;28;45418;-71
2021/09/06 03:09:07;;;;;;;;;16.25;15.50;;;;;23.24;58.37;101697.22;4904678;28;45436;-71
2021/09/06 03:11:42;;;;;;;;;16.00;16.00;;;;;23.02;58.48;101656.09;4913409;28;45936;-71
2021/09/06 03:14:15;;;;;;;;;21.75;20.25;;;;;22.98;58.63;101643.69;4946587;28;48675;-71
2021/09/06 03:16:50;;;;;;;;;22.00;20.75;;;;;22.96;58.47;101642.94;4939390;28;45196;-71
2021/09/06 03:19:16;;;;;;;;;19.25;16.50;;;;;23.15;58.91;101684.22;4923782;28;45349;-71
2021/09/06 03:21:46;;;;;;;;;18.00;17.50;;;;;22.96;59.13;101657.41;4937734;28;45208;-71
2021/09/06 03:24:28;;;;;;;;;21.25;20.25;;;;;23.13;58.73;101684.34;4930540;28;46400;-71
2021/09/06 03:26:53;;;;;;;;;21.75;18.25;;;;;22.94;58.80;101659.38;4936115;28;45396;-71
2021/09/06 03:29:19;;;;;;;;;19.00;19.00;;;;;23.04;58.60;101674.09;4923594;28;45522;-71
2021/09/06 03:31:52;;;;;;;;;21.75;18.25;;;;;23.05;58.76;101680.38;4923004;28;45527;-71
2021/09/06 03:34:17;;;;;;;;;19.00;18.50;;;;;22.90;57.84;101645.13;4936054;28;47317;-71
2021/09/06 03:36:46;;;;;;;;;16.50;16.00;;;;;23.02;58.11;101677.88;4946153;28;45763;-71
2021/09/06 03:39:11;;;;;;;;;15.50;15.25;;;;;23.05;57.72;101694.00;4942054;28;45478;-71
2021/09/06 03:41:37;;;;;;;;;18.25;15.00;;;;;22.82;57.79;101655.66;4933843;28;45455;-71
2021/09/06 03:44:02;;;;;;;;;17.50;16.50;;;;;22.69;57.80;101630.28;4923098;28;46307;-71
2021/09/06 03:46:28;;;;;;;;;14.75;13.50;;;;;22.79;57.79;101650.44;4923053;28;46081;-71
2021/09/06 03:48:56;;;;;;;;;14.00;13.00;;;;;22.75;57.59;101641.63;4926941;28;45553;-71
2021/09/06 03:51:21;;;;;;;;;16.25;16.25;;;;;22.69;57.75;101638.44;4923243;28;46050;-71
2021/09/06 03:53:49;;;;;;;;;13.75;13.75;;;;;22.79;57.37;101646.81;4924144;28;46372;-71
2021/09/06 03:56:15;;;;;;;;;19.00;16.50;;;;;22.68;57.16;101642.13;4924450;28;45594;-71
2021/09/06 03:58:43;;;;;;;;;12.75;12.75;;;;;22.70;57.37;101648.34;4923248;28;45562;-71
2021/09/06 04:01:09;;;;;;;;;16.50;16.00;;;;;22.61;57.61;101632.66;4923203;28;46420;-71
2021/09/06 04:03:40;;;;;;;;;14.00;13.75;;;;;22.65;57.56;101639.63;4936815;28;46197;-71
2021/09/06 04:06:05;;;;;;;;;11.50;11.00;;;;;22.58;57.94;101633.72;4922909;28;45349;-71
2021/09/06 04:08:31;;;;;;;;;11.25;11.25;;;;;22.86;57.52;101680.81;4924996;28;45320;-71
2021/09/06 04:11:06;;;;;;;;;18.50;15.00;;;;;22.52;57.81;101624.16;4934000;28;45341;-71
2021/09/06 04:13:31;;;;;;;;;16.25;14.75;;;;;22.77;57.25;101671.44;4938767;28;45752;-71
2021/09/06 04:16:02;;;;;;;;;17.50;15.25;;;;;22.63;57.33;101650.59;4931600;28;45485;-71
2021/09/06 04:18:29;;;;;;;;;17.75;15.25;;;;;22.62;57.65;101657.03;4919607;28;45393;-71
2021/09/06 04:20:56;;;;;;;;;16.75;16.50;;;;;22.64;57.69;101659.66;4930729;28;45451;-71
2021/09/06 04:23:24;;;;;;;;;16.50;15.75;;;;;22.62;57.41;101658.88;4923853;28;45495;-71
2021/09/06 04:25:49;;;;;;;;;17.75;15.75;;;;;22.60;57.76;101658.13;4924052;28;45250;-71
2021/09/06 04:28:22;;;;;;;;;22.50;20.00;;;;;22.64;57.64;101663.25;4929030;28;45444;-71
2021/09/06 04:30:52;;;;;;;;;17.75;17.75;;;;;22.68;58.18;101681.09;4906650;28;46315;-71
2021/09/06 04:33:17;;;;;;;;;21.75;18.75;;;;;22.60;58.18;101675.31;4930234;28;45343;-71
2021/09/06 04:35:43;;;;;;;;;15.75;15.75;;;;;22.50;58.38;101661.47;4929102;28;45219;-71
2021/09/06 04:38:11;;;;;;;;;21.25;17.75;;;;;22.42;58.30;101649.34;4914246;28;45470;-71
2021/09/06 04:40:43;;;;;;;;;22.25;20.00;;;;;22.47;58.82;101661.69;4928258;28;45500;-71
2021/09/06 04:43:09;;;;;;;;;20.00;18.75;;;;;22.35;58.61;101649.78;4923970;28;45502;-71
2021/09/06 04:45:35;;;;;;;;;20.25;18.75;;;;;22.64;58.54;101714.94;4923439;28;45413;-71
2021/09/06 04:48:08;;;;;;;;;22.25;20.00;;;;;22.27;58.97;101651.22;4925595;28;45447;-71
2021/09/06 04:50:33;;;;;;;;;20.50;20.25;;;;;22.61;59.32;101717.00;4923571;28;45264;-71
2021/09/06 04:53:01;;;;;;;;;24.75;21.50;;;;;22.42;59.14;101688.34;4923702;28;46184;-71
2021/09/06 04:55:29;;;;;;;;;20.50;20.50;;;;;22.39;59.30;101683.09;4922093;28;45726;-71
2021/09/06 04:57:55;;;;;;;;;21.00;19.50;;;;;22.56;59.18;101712.75;4913186;28;45462;-71
2021/09/06 05:00:22;;;;;;;;;21.50;18.75;;;;;22.23;59.03;101660.59;4928222;28;45253;-71
2021/09/06 05:02:48;;;;;;;;;20.25;19.75;;;;;22.47;59.24;101699.78;4934726;28;46198;-71
2021/09/06 05:05:15;;;;;;;;;22.00;22.00;;;;;22.43;59.27;101703.66;4919129;28;45748;-71
2021/09/06 05:07:43;;;;;;;;;19.75;19.75;;;;;22.42;58.88;101698.31;4926634;28;45383;-71
2021/09/06 05:10:09;;;;;;;;;19.75;19.75;;;;;22.47;58.94;101724.25;4926018;28;45389;-71
2021/09/06 05:12:34;;;;;;;;;19.50;18.75;;;;;22.34;58.95;101696.13;4929253;28;46958;-71
2021/09/06 05:15:00;;;;;;;;;18.25;17.00;;;;;22.46;59.02;101719.78;4938442;28;45247;-71
2021/09/06 05:17:27;;;;;;;;;19.25;19.25;;;;;22.45;59.13;101715.31;4906515;28;45725;-71
2021/09/06 05:19:53;;;;;;;;;19.50;19.50;;;;;22.34;58.84;101710.59;4918580;28;45563;-71
2021/09/06 05:22:18;;;;;;;;;18.25;18.00;;;;;22.33;58.93;101714.28;4932096;28;45461;-71
2021/09/06 05:24:46;;;;;;;;;19.25;17.75;;;;;22.41;59.01;101734.69;4925663;28;45443;-71
2021/09/06 05:27:14;;;;;;;;;17.75;17.75;;;;;22.30;58.93;101717.22;4923610;28;45387;-71
2021/09/06 05:29:45;;;;;;;;;20.50;18.50;;;;;22.12;58.92;101689.38;4925819;28;45295;-71
2021/09/06 05:32:10;;;;;;;;;19.25;18.00;;;;;22.40;58.87;101736.50;4916129;28;47444;-71
2021/09/06 05:34:36;;;;;;;;;23.25;21.25;;;;;22.13;58.65;101692.94;4907502;28;45490;-71
2021/09/06 05:37:01;;;;;;;;;23.00;22.75;;;;;22.14;59.18;101708.31;4913313;28;45675;-71
2021/09/06 05:39:29;;;;;;;;;20.75;18.50;;;;;22.08;59.37;101708.69;4905424;28;45411;-71
2021/09/06 05:41:55;;;;;;;;;24.75;21.75;;;;;22.00;59.14;101696.50;4929871;28;45411;-75
2021/09/06 05:44:20;;;;;;;;;18.75;18.50;;;;;22.10;58.77;101714.91;4924437;28;45381;-76
2021/09/06 05:46:46;;;;;;;;;21.25;19.75;;;;;22.05;59.09;101714.34;4922498;28;45406;-75
2021/09/06 05:49:24;;;;;;;;;;;;;;;;;;;;;
2021/09/06 05:53:15;;;;;;;;;;;;;;;;;;;;;
2021/09/06 05:55:09;;;;;;;;;26.25;21.75;;;;;22.44;58.84;101786.16;4911931;28;45422;-74
2021/09/06 05:57:38;;;;;;;;;18.25;18.25;;;;;22.07;59.44;101725.97;4922806;28;45165;-74
2021/09/06 06:00:14;;;;;;;;;22.75;18.75;;;;;22.35;58.84;101777.63;4914428;28;45457;-74
2021/09/06 06:02:40;;;;;;;;;23.75;21.75;;;;;22.28;59.20;101764.50;4922467;28;46763;-74
2021/09/06 06:05:06;;;;;;;;;22.75;22.00;;;;;22.15;59.07;101740.84;4923031;28;45595;-74
2021/09/06 06:07:32;;;;;;;;;22.50;20.50;;;;;22.40;59.44;101782.75;4928498;28;45598;-74
2021/09/06 06:09:58;;;;;;;;;23.50;20.50;;;;;22.42;59.25;101783.53;4928036;28;45434;-74
2021/09/06 06:12:27;;;;;;;;;19.75;18.50;;;;;22.10;59.25;101742.09;4926444;28;45438;-74
2021/09/06 06:14:52;;;;;;;;;21.00;21.00;;;;;22.14;59.11;101747.25;4934354;28;45247;-74
2021/09/06 06:17:18;;;;;;;;;21.25;21.25;;;;;22.29;59.31;101780.75;4923496;28;45466;-74
2021/09/06 06:19:43;;;;;;;;;20.00;18.25;;;;;22.28;59.50;101781.72;4924133;28;45197;-74
2021/09/06 06:22:09;;;;;;;;;24.00;23.00;;;;;22.07;59.17;101748.63;4922315;28;46413;-75
2021/09/06 06:24:34;;;;;;;;;24.50;23.75;;;;;22.08;59.49;101746.75;4920777;28;46030;-74
2021/09/06 06:27:12;;;;;;;;;24.50;24.50;;;;;22.29;59.64;101788.91;4912802;28;45540;-76
2021/09/06 06:29:47;;;;;;;;;21.25;20.75;;;;;22.11;59.51;101761.03;4939859;28;45453;-75
2021/09/06 06:32:20;;;;;;;;;22.25;20.00;;;;;22.13;58.79;101764.50;4941160;28;47437;-75
2021/09/06 06:34:46;;;;;;;;;21.00;19.50;;;;;21.94;58.16;101734.06;4936531;28;45510;-75
2021/09/06 06:37:11;;;;;;;;;20.50;18.50;;;;;22.07;57.59;101748.63;4933387;28;45533;-74
2021/09/06 06:39:37;;;;;;;;;19.50;19.50;;;;;22.06;57.13;101756.88;4927435;28;45445;-75
2021/09/06 06:42:03;;;;;;;;;21.25;21.25;;;;;22.32;57.01;101798.69;4926660;28;45625;-75
2021/09/06 06:44:29;;;;;;;;;22.00;21.00;;;;;22.30;56.84;101797.94;4920955;28;45857;-75
2021/09/06 06:46:54;;;;;;;;;18.50;18.50;;;;;22.32;56.80;101813.19;4923942;28;45446;-75
2021/09/06 06:49:22;;;;;;;;;17.25;16.75;;;;;22.23;58.06;101791.97;4924955;28;45381;-75
2021/09/06 06:51:47;;;;;;;;;19.75;19.00;;;;;22.41;57.92;101819.00;4924887;28;46198;-75
2021/09/06 06:54:15;;;;;;;;;19.00;17.75;;;;;22.23;57.30;101791.13;4925099;28;45320;-75
2021/09/06 06:56:41;;;;;;;;;18.00;16.75;;;;;22.36;56.55;101809.28;4925311;28;45303;-75
2021/09/06 06:59:06;;;;;;;;;21.00;19.50;;;;;22.13;56.06;101778.09;4939561;28;45355;-75
2021/09/06 07:01:34;;;;;;;;;16.25;15.50;;;;;22.07;57.32;101756.78;4933376;28;45628;-75
2021/09/06 07:04:00;;;;;;;;;19.50;16.25;;;;;22.24;57.55;101787.44;4929476;28;45281;-75
2021/09/06 07:06:26;;;;;;;;;20.75;18.00;;;;;22.32;58.05;101804.13;4938545;28;45336;-75
2021/09/06 07:08:51;;;;;;;;;18.50;18.50;;;;;22.46;58.52;101817.72;4929073;28;46186;-75
2021/09/06 07:11:16;;;;;;;;;20.75;18.50;;;;;22.45;56.13;101821.41;4929420;28;45587;-75
2021/09/06 07:13:42;;;;;;;;;19.00;17.50;;;;;22.14;56.05;101771.72;4944358;28;45478;-75
2021/09/06 07:16:07;;;;;;;;;16.00;14.75;;;;;22.14;55.77;101765.41;4940356;28;45303;-74
2021/09/06 07:18:33;;;;;;;;;19.00;18.00;;;;;22.31;55.96;101791.53;4928876;28;45514;-75
2021/09/06 07:20:58;;;;;;;;;20.25;19.00;;;;;22.29;55.20;101786.19;4907023;28;46826;-75
2021/09/06 07:23:24;;;;;;;;;21.50;20.00;;;;;22.44;55.44;101811.50;4940058;28;45481;-75
2021/09/06 07:25:49;;;;;;;;;22.50;19.75;;;;;22.50;55.31;101816.56;4932473;28;45575;-75
2021/09/06 07:28:15;;;;;;;;;19.00;19.00;;;;;22.65;55.93;101841.00;4922721;28;45546;-75
2021/09/06 07:30:40;;;;;;;;;18.25;18.00;;;;;22.67;56.24;101836.31;4923766;28;45999;-75
2021/09/06 07:33:06;;;;;;;;;20.50;20.25;;;;;22.53;56.68;101819.06;4930377;28;45438;-75
2021/09/06 07:35:33;;;;;;;;;17.00;16.25;;;;;22.37;56.20;101783.84;4924423;28;45486;-75
2021/09/06 07:37:58;;;;;;;;;21.25;20.00;;;;;22.53;56.55;101816.34;4945048;28;46562;-74
2021/09/06 07:40:24;;;;;;;;;17.75;16.75;;;;;22.73;56.54;101839.50;4931247;28;46179;-75
2021/09/06 07:42:49;;;;;;;;;17.00;15.75;;;;;22.49;56.45;101794.91;4931147;28;45383;-74
2021/09/06 07:45:15;;;;;;;;;18.50;18.50;;;;;22.66;55.75;101821.84;4933388;28;45294;-74
2021/09/06 07:47:43;;;;;;;;;23.75;20.75;;;;;22.80;55.13;101839.97;4926754;28;45726;-74
2021/09/06 07:50:11;;;;;;;;;21.25;17.75;;;;;22.91;55.44;101858.31;4923489;28;45547;-74
2021/09/06 07:52:37;;;;;;;;;17.50;17.00;;;;;22.78;55.41;101825.59;4927441;28;45481;-74
2021/09/06 07:55:06;;;;;;;;;16.75;16.75;;;;;22.92;55.32;101850.06;4923574;28;45452;-74
2021/09/06 07:57:32;;;;;;;;;20.25;18.75;;;;;22.83;54.67;101814.41;4921747;28;46090;-74
2021/09/06 08:00:00;;;;;;;;;21.00;18.75;;;;;22.78;55.17;101803.81;4926099;28;45345;-75
2021/09/06 08:02:26;;;;;;;;;19.50;17.25;;;;;22.97;55.31;101835.25;4922893;28;45524;-74
2021/09/06 08:04:51;;;;;;;;;19.50;17.25;;;;;23.07;54.60;101847.28;4923166;28;45388;-75
2021/09/06 08:07:17;;;;;;;;;16.00;16.00;;;;;23.01;54.69;101832.22;4927010;28;45437;-75
2021/09/06 08:09:44;;;;;;;;;18.00;17.50;;;;;22.96;54.90;101823.50;4936087;28;45884;-78
2021/09/06 08:12:12;;;;;;;;;15.75;15.00;;;;;23.13;53.83;101852.31;4927345;28;45482;-76
2021/09/06 08:14:38;;;;;;;;;18.75;18.75;;;;;23.02;54.12;101819.47;4941795;28;45625;-77
2021/09/06 08:24:32;;;;;;;;;16.00;16.00;;;;;23.46;53.29;101875.50;4942009;28;45903;-73
2021/09/06 09:03:28;;;;;;;;;17.75;17.75;;;;;23.86;52.42;101815.50;6011809;23;46857;-73
2021/09/06 10:14:51;;;;;;;;;10.25;9.50;;;;;25.81;47.61;101849.09;5485412;23;45939;-77
2021/09/06 10:36:22;;;;;;;;;14.50;14.25;;;;;25.86;47.36;101808.56;4907163;28;45452;-78
2021/09/06 10:39:00;;;;;;;;;16.75;14.75;;;;;25.87;46.94;101801.22;4907742;28;46295;-72
2021/09/06 10:48:27;;;;;;;;;14.50;14.00;;;;;25.99;47.01;101786.59;4869417;28;45721;-75
2021/09/06 10:51:52;;;;;;;;;14.50;13.00;;;;;26.36;47.18;101831.94;4920985;28;45465;-74
2021/09/06 10:54:27;;;;;;;;;14.50;13.50;;;;;26.15;46.28;101802.63;4911644;28;45443;-76
2021/09/06 10:56:54;;;;;;;;;13.00;12.25;;;;;26.30;46.53;101808.72;4904324;28;45481;-75
2021/09/06 10:59:26;;;;;;;;;14.00;12.75;;;;;26.13;46.15;101774.53;4921058;28;45519;-74
2021/09/06 11:02:02;;;;;;;;;12.75;12.50;;;;;26.22;46.31;101781.97;4917413;28;48055;-74
2021/09/06 11:05:32;;;;;;;;;15.25;13.50;;;;;26.27;45.40;101778.84;4921263;28;45430;-75
2021/09/06 11:07:58;;;;;;;;;;;;;;;;;;;;;
2021/09/06 11:14:56;;;;;;;;;;;;;;;;;;;;;
2021/09/06 11:17:33;;;;;;;;;12.50;12.00;;;;;26.40;45.02;101778.72;4835099;29;72950;-75
2021/09/06 11:20:01;;;;;;;;;13.75;13.75;;;;;26.40;44.96;101781.44;4901826;28;45662;-79
2021/09/06 11:22:29;;;;;;;;;12.25;12.25;;;;;26.80;45.27;101828.28;4917453;28;45558;-79
2021/09/06 11:25:02;;;;;;;;;12.50;12.50;;;;;26.55;44.50;101776.56;4915689;28;47260;-79
2021/09/06 11:27:31;;;;;;;;;12.00;10.75;;;;;26.80;44.96;101813.72;4916656;28;45513;-78
2021/09/06 12:06:47;;;;;;;;;;;;;;;;;;;;;
2021/09/06 12:10:24;;;;;;;;;;;;;;;;;;;;;
2021/09/06 12:20:44;;;;;;;;;;;;;;;;;;;;;
2021/09/06 12:24:09;;;;;;;;;;;;;;;;;;;;;
2021/09/06 12:37:46;;;;;;;;;;;;;;;;;;;;;
2021/09/06 12:54:57;;;;;;;;;16.00;14.00;;;;;27.78;42.07;101803.47;4673458;30;46261;-70
2021/09/06 13:08:01;;;;;;;;;;;;;;;;;;;;;
2021/09/06 13:14:32;;;;;;;;;;;;;;;;;;;;;
2021/09/06 14:52:14;;;;;;;;;14.25;13.00;;;;;28.33;39.51;101731.78;5133370;23;45775;-67
2021/09/06 14:54:48;;;;;;;;;13.75;13.25;;;;;28.34;40.07;101731.63;4856862;29;45433;-73
2021/09/06 14:57:48;;;;;;;;;11.00;10.00;;;;;28.31;39.66;101720.06;4862073;29;45528;-70
2021/09/06 15:03:43;;;;;;;;;10.00;9.50;;;;;28.43;39.12;101738.16;4833751;29;45357;-70
2021/09/06 15:06:09;;;;;;;;;11.00;10.00;;;;;28.39;39.55;101725.72;4893308;28;45486;-70
2021/09/06 15:08:34;;;;;;;;;10.00;9.00;;;;;28.43;39.26;101732.66;4923789;28;45328;-74
2021/09/06 15:10:59;;;;;;;;;9.00;9.00;;;;;28.42;38.82;101726.31;4926182;28;45292;-74
2021/09/06 15:13:25;;;;;;;;;9.25;8.50;;;;;28.41;39.70;101720.94;4924132;28;45355;-74
2021/09/06 15:15:50;;;;;;;;;8.50;8.50;;;;;28.42;38.68;101723.56;4924575;28;45409;-74
2021/09/06 15:18:15;;;;;;;;;13.50;10.75;;;;;28.45;39.10;101726.03;4924385;28;45466;-74
2021/09/06 15:20:41;;;;;;;;;9.25;9.25;;;;;28.47;38.95;101720.38;4924734;28;45304;-74
2021/09/06 15:23:06;;;;;;;;;11.00;10.50;;;;;28.47;39.68;101723.13;4924782;28;45402;-74
2021/09/06 15:25:32;;;;;;;;;10.50;10.50;;;;;28.44;39.18;101720.66;4923658;28;45255;-74
2021/09/06 15:27:57;;;;;;;;;10.00;10.00;;;;;28.49;38.76;101720.25;4905168;28;45473;-74
2021/09/06 15:30:25;;;;;;;;;10.75;10.75;;;;;28.51;39.29;101726.47;4918059;28;46066;-74
2021/09/06 15:32:51;;;;;;;;;7.75;7.75;;;;;28.48;39.19;101721.25;4924012;28;45455;-74
2021/09/06 15:35:16;;;;;;;;;10.00;10.00;;;;;28.46;38.60;101713.16;4923796;28;45402;-73
2021/09/06 15:37:41;;;;;;;;;9.00;9.00;;;;;28.49;38.90;101717.50;4923504;28;45509;-74
2021/09/06 15:40:08;;;;;;;;;10.25;8.75;;;;;28.49;38.63;101715.59;4922813;28;45358;-74
2021/09/06 15:42:35;;;;;;;;;11.25;10.75;;;;;28.48;38.24;101713.88;4922951;28;45517;-74
2021/09/06 15:45:10;;;;;;;;;8.00;8.00;;;;;28.45;38.80;101716.88;4922802;28;45400;-73
2021/09/06 15:47:36;;;;;;;;;9.25;9.25;;;;;28.46;38.21;101715.91;4906255;28;45520;-74
2021/09/06 15:50:02;;;;;;;;;11.25;10.50;;;;;28.45;38.65;101717.78;4922254;28;45538;-74
2021/09/06 15:52:28;;;;;;;;;10.00;10.00;;;;;28.48;37.65;101716.59;4920432;28;46217;-73
2021/09/06 15:54:54;;;;;;;;;9.25;9.25;;;;;28.44;38.00;101715.19;4919416;28;45607;-73
2021/09/06 15:57:20;;;;;;;;;8.75;8.50;;;;;28.50;38.58;101724.72;4922482;28;45425;-73
2021/09/06 15:59:46;;;;;;;;;8.00;8.00;;;;;28.50;37.93;101719.22;4922606;28;46371;-73
2021/09/06 16:02:11;;;;;;;;;8.00;7.50;;;;;28.49;37.86;101721.09;4906281;28;45565;-73
2021/09/06 16:04:37;;;;;;;;;9.00;7.50;;;;;28.47;37.38;101720.38;4923409;28;45374;-73
2021/09/06 16:07:03;;;;;;;;;8.00;7.50;;;;;28.48;37.72;101722.09;4906141;28;45484;-74
2021/09/06 16:09:29;;;;;;;;;10.75;9.25;;;;;28.44;36.40;101710.53;4922286;28;46363;-73
2021/09/06 16:11:54;;;;;;;;;9.50;9.50;;;;;28.52;37.37;101723.56;4904862;28;45935;-74
2021/09/06 16:14:20;;;;;;;;;10.25;10.00;;;;;28.52;37.81;101718.06;4922139;28;45346;-73
2021/09/06 16:16:45;;;;;;;;;9.50;9.50;;;;;28.52;38.05;101712.59;4923126;28;45335;-73
2021/09/06 16:19:11;;;;;;;;;8.00;8.00;;;;;28.48;38.31;101707.50;4922538;28;45596;-71
2021/09/06 16:21:37;;;;;;;;;10.25;10.25;;;;;28.51;37.70;101702.59;4907450;28;45389;-74
2021/09/06 16:24:03;;;;;;;;;12.00;9.75;;;;;28.51;37.90;101715.47;4922961;28;45554;-75
2021/09/06 16:26:28;;;;;;;;;10.00;9.00;;;;;28.49;38.41;101704.63;4923375;28;45538;-75
2021/09/06 16:28:53;;;;;;;;;11.00;9.75;;;;;28.48;37.93;101705.63;4922482;28;45994;-75
2021/09/06 16:31:19;;;;;;;;;10.00;9.50;;;;;28.50;38.01;101706.38;4922155;28;45454;-70
2021/09/06 16:33:45;;;;;;;;;8.00;7.50;;;;;28.49;38.82;101712.00;4923283;28;45495;-71
2021/09/06 16:36:10;;;;;;;;;9.00;8.25;;;;;28.45;38.47;101709.53;4922227;28;45520;-70
2021/09/06 16:38:36;;;;;;;;;8.00;8.00;;;;;28.50;38.42;101709.13;4922015;28;46269;-71
2021/09/06 16:41:01;;;;;;;;;8.50;7.00;;;;;28.50;38.09;101706.38;4904872;28;45465;-72
2021/09/06 16:43:27;;;;;;;;;8.00;8.00;;;;;28.50;38.16;101702.75;4922743;28;45394;-73
2021/09/06 16:45:53;;;;;;;;;10.00;10.00;;;;;28.50;38.02;101705.47;4922797;28;45654;-74
2021/09/06 16:48:18;;;;;;;;;8.00;6.75;;;;;28.50;37.57;101705.47;4922710;28;45607;-74
2021/09/06 16:50:44;;;;;;;;;10.25;9.00;;;;;28.46;37.70;101703.03;4921702;28;45486;-72
2021/09/06 16:53:10;;;;;;;;;8.25;7.75;;;;;28.44;38.24;101695.94;4922503;28;45857;-71
2021/09/06 16:55:35;;;;;;;;;9.50;9.50;;;;;28.44;38.04;101696.81;4920040;28;45744;-71
2021/09/06 16:58:01;;;;;;;;;8.00;8.00;;;;;28.46;37.21;101697.53;4921181;28;48000;-70